createdAt,value
2022-07-26T00:01:39.064Z,7.53
2022-07-26T00:04:06.268Z,7.65
2022-07-26T00:06:33.277Z,7.53
2022-07-26T00:09:00.407Z,7.18
2022-07-26T00:11:28.787Z,6.95
2022-07-26T00:13:55.740Z,7.37
2022-07-26T00:16:23.337Z,7.05
2022-07-26T00:18:50.214Z,7.10
2022-07-26T00:21:17.046Z,7.47
2022-07-26T00:23:44.113Z,7.13
2022-07-26T00:26:10.873Z,6.90
2022-07-26T00:28:37.776Z,7.68
2022-07-26T00:31:04.921Z,7.55
2022-07-26T00:33:31.814Z,7.15
2022-07-26T00:35:58.662Z,6.80
2022-07-26T00:38:25.869Z,7.43
2022-07-26T00:40:53.254Z,6.97
2022-07-26T00:43:20.157Z,5.78
2022-07-26T00:45:47.185Z,6.25
2022-07-26T00:48:14.022Z,6.47
2022-07-26T00:50:43.020Z,6.90
2022-07-26T00:53:10.006Z,6.72
2022-07-26T00:55:36.844Z,7.25
2022-07-26T00:58:03.731Z,7.30
2022-07-26T01:00:30.782Z,7.15
2022-07-26T01:03:00.511Z,7.13
2022-07-26T01:05:27.851Z,6.75
2022-07-26T01:07:55.317Z,6.88
2022-07-26T01:10:22.260Z,6.80
2022-07-26T01:12:49.081Z,6.80
2022-07-26T01:15:17.025Z,6.88
2022-07-26T01:17:44.303Z,6.78
2022-07-26T01:20:13.044Z,6.28
2022-07-26T01:22:40.364Z,6.20
2022-07-26T01:25:07.662Z,6.18
2022-07-26T01:27:39.430Z,5.72
2022-07-26T01:30:11.632Z,5.60
2022-07-26T01:32:38.759Z,6.25
2022-07-26T01:35:07.480Z,6.22
2022-07-26T01:37:34.553Z,5.47
2022-07-26T01:40:01.553Z,5.78
2022-07-26T01:42:28.360Z,5.68
2022-07-26T01:44:55.491Z,5.32
2022-07-26T01:47:22.405Z,4.93
2022-07-26T01:49:49.240Z,5.30
2022-07-26T01:52:16.303Z,4.82
2022-07-26T01:54:43.084Z,5.45
2022-07-26T01:57:09.918Z,5.85
2022-07-26T01:59:36.910Z,4.97
2022-07-26T02:02:03.776Z,4.88
2022-07-26T02:04:49.043Z,4.75
2022-07-26T02:07:16.043Z,5.00
2022-07-26T02:09:42.812Z,4.90
2022-07-26T02:12:09.934Z,5.80
2022-07-26T02:14:36.990Z,5.20
2022-07-26T02:17:04.043Z,5.47
2022-07-26T02:19:31.759Z,5.00
2022-07-26T02:21:59.099Z,5.07
2022-07-26T02:24:30.264Z,5.28
2022-07-26T02:26:58.369Z,5.13
2022-07-26T02:29:26.217Z,5.38
2022-07-26T02:31:54.147Z,5.80
2022-07-26T02:34:20.998Z,5.45
2022-07-26T02:36:48.085Z,5.63
2022-07-26T02:39:15.022Z,6.18
2022-07-26T02:41:42.010Z,5.28
2022-07-26T02:44:10.337Z,6.18
2022-07-26T02:46:38.141Z,6.13
2022-07-26T02:49:05.129Z,5.47
2022-07-26T02:51:32.513Z,7.25
2022-07-26T02:53:59.327Z,6.65
2022-07-26T02:56:26.147Z,6.30
2022-07-26T02:58:53.206Z,6.10
2022-07-26T03:01:20.296Z,5.85
2022-07-26T03:03:50.849Z,6.20
2022-07-26T03:06:19.429Z,5.57
2022-07-26T03:08:47.027Z,6.45
2022-07-26T03:11:14.236Z,5.75
2022-07-26T03:13:41.277Z,5.85
2022-07-26T03:16:08.634Z,6.18
2022-07-26T03:18:35.507Z,6.30
2022-07-26T03:21:03.200Z,6.80
2022-07-26T03:23:33.516Z,7.63
2022-07-26T03:26:02.162Z,8.20
2022-07-26T03:28:31.344Z,7.60
2022-07-26T03:30:58.459Z,7.25
2022-07-26T03:33:25.400Z,6.93
2022-07-26T03:35:52.477Z,7.85
2022-07-26T03:38:19.781Z,7.20
2022-07-26T03:40:46.689Z,6.95
2022-07-26T03:43:13.742Z,6.50
2022-07-26T03:45:42.313Z,6.20
2022-07-26T03:48:09.130Z,5.55
2022-07-26T03:50:36.588Z,5.03
2022-07-26T03:53:04.680Z,5.18
2022-07-26T03:55:50.059Z,5.20
2022-07-26T03:58:19.186Z,5.55
2022-07-26T04:00:46.670Z,5.25
2022-07-26T04:03:13.553Z,4.80
2022-07-26T04:05:40.659Z,5.18
2022-07-26T04:08:15.551Z,4.55
2022-07-26T04:10:46.184Z,4.97
2022-07-26T04:13:13.049Z,4.65
2022-07-26T04:15:39.932Z,4.72
2022-07-26T04:18:06.923Z,5.00
2022-07-26T04:20:33.788Z,4.97
2022-07-26T04:23:00.629Z,5.10
2022-07-26T04:25:27.756Z,4.63
2022-07-26T04:28:08.568Z,5.00
2022-07-26T04:30:35.960Z,5.15
2022-07-26T04:33:03.390Z,4.20
2022-07-26T04:35:30.321Z,4.32
2022-07-26T04:37:57.516Z,4.50
2022-07-26T04:40:25.912Z,4.30
2022-07-26T04:42:52.706Z,4.43
2022-07-26T04:45:20.935Z,4.57
2022-07-26T04:47:50.393Z,4.20
2022-07-26T04:50:19.127Z,4.25
2022-07-26T04:52:46.672Z,4.25
2022-07-26T04:55:13.773Z,4.32
2022-07-26T04:57:41.028Z,4.93
2022-07-26T05:00:26.981Z,4.57
2022-07-26T05:02:59.709Z,4.00
2022-07-26T05:05:29.491Z,4.40
2022-07-26T05:07:58.493Z,3.55
2022-07-26T05:10:35.397Z,3.63
2022-07-26T05:13:04.400Z,4.20
2022-07-26T05:15:36.709Z,4.35
2022-07-26T05:18:10.270Z,4.22
2022-07-26T05:20:38.308Z,3.90
2022-07-26T05:23:05.459Z,3.65
2022-07-26T05:25:32.603Z,3.58
2022-07-26T05:27:59.403Z,3.72
2022-07-26T05:30:26.608Z,4.00
2022-07-26T05:32:53.409Z,3.60
2022-07-26T05:35:20.277Z,4.32
2022-07-26T05:37:47.366Z,3.13
2022-07-26T05:40:14.414Z,4.22
2022-07-26T05:42:41.423Z,4.05
2022-07-26T05:45:09.360Z,3.92
2022-07-26T05:47:36.360Z,3.53
2022-07-26T05:50:04.744Z,3.22
2022-07-26T05:52:32.078Z,2.97
2022-07-26T05:54:58.940Z,3.15
2022-07-26T05:57:25.994Z,3.45
2022-07-26T05:59:53.035Z,3.65
2022-07-26T06:02:20.105Z,4.70
2022-07-26T06:04:47.594Z,2.95
2022-07-26T06:07:15.588Z,3.10
2022-07-26T06:09:42.593Z,3.80
2022-07-26T06:12:09.636Z,3.38
2022-07-26T06:14:36.667Z,4.50
2022-07-26T06:17:04.600Z,4.40
2022-07-26T06:19:31.988Z,3.72
2022-07-26T06:21:59.146Z,3.78
2022-07-26T06:24:26.029Z,3.00
2022-07-26T06:26:57.195Z,2.72
2022-07-26T06:29:32.618Z,2.53
2022-07-26T06:32:00.107Z,2.83
2022-07-26T06:34:27.121Z,2.38
2022-07-26T06:36:54.196Z,2.45
2022-07-26T06:39:21.155Z,2.67
2022-07-26T06:41:47.964Z,3.00
2022-07-26T06:44:15.058Z,3.10
2022-07-26T06:46:41.883Z,3.67
2022-07-26T06:49:08.900Z,3.55
2022-07-26T06:51:35.906Z,4.05
2022-07-26T06:54:03.826Z,3.10
2022-07-26T06:56:32.527Z,2.80
2022-07-26T06:58:59.574Z,2.72
2022-07-26T07:01:58.693Z,35.25
2022-07-26T07:04:13.580Z,2.15
2022-07-26T07:06:40.388Z,2.78
2022-07-26T07:09:08.319Z,3.40
2022-07-26T07:14:03.481Z,16.15
2022-07-26T07:16:30.676Z,2.80
2022-07-26T07:18:57.796Z,2.97
2022-07-26T07:21:24.650Z,2.08
2022-07-26T07:23:51.466Z,2.35
2022-07-26T07:26:20.290Z,2.30
2022-07-26T07:28:47.153Z,2.20
2022-07-26T07:33:52.657Z,2.55
2022-07-26T07:36:21.108Z,2.13
2022-07-26T07:38:49.432Z,2.58
2022-07-26T07:41:16.554Z,2.35
2022-07-26T07:43:43.356Z,2.55
2022-07-26T07:46:10.540Z,2.38
2022-07-26T07:48:43.432Z,2.00
2022-07-26T07:51:13.843Z,2.60
2022-07-26T07:53:40.656Z,2.55
2022-07-26T07:56:08.158Z,2.38
2022-07-26T07:58:35.190Z,2.28
2022-07-26T08:01:02.114Z,2.20
2022-07-26T08:03:38.421Z,2.20
2022-07-26T08:06:08.959Z,2.38
2022-07-26T08:08:37.024Z,2.15
2022-07-26T08:11:07.804Z,8.57
2022-07-26T08:13:35.205Z,2.03
2022-07-26T08:16:02.101Z,2.83
2022-07-26T08:18:29.143Z,2.70
2022-07-26T08:20:57.129Z,1.95
2022-07-26T08:23:24.106Z,2.30
2022-07-26T08:26:01.947Z,1.98
2022-07-26T08:28:48.400Z,2.58
2022-07-26T08:31:16.523Z,2.05
2022-07-26T08:33:45.812Z,2.95
2022-07-26T08:36:14.689Z,2.42
2022-07-26T08:41:09.229Z,2.30
2022-07-26T08:43:52.362Z,2.40
2022-07-26T08:46:26.960Z,2.30
2022-07-26T08:48:55.970Z,2.33
2022-07-26T08:51:25.241Z,2.28
2022-07-26T08:54:04.855Z,2.53
2022-07-26T08:56:37.177Z,2.53
2022-07-26T08:59:20.330Z,2.30
2022-07-26T09:02:07.361Z,2.20
2022-07-26T09:04:43.684Z,2.10
2022-07-26T09:10:03.809Z,2.20
2022-07-26T09:12:31.930Z,2.35
2022-07-26T09:15:01.138Z,2.40
2022-07-26T09:17:49.970Z,2.53
2022-07-26T09:20:24.417Z,2.10
2022-07-26T09:23:08.054Z,2.35
2022-07-26T09:25:40.596Z,2.22
2022-07-26T09:28:33.497Z,20.65
2022-07-26T09:31:03.384Z,12.48
2022-07-26T09:33:47.976Z,2.30
2022-07-26T09:36:15.826Z,2.60
2022-07-26T09:38:48.943Z,2.50
2022-07-26T09:41:23.547Z,3.00
2022-07-26T09:43:54.015Z,2.40
2022-07-26T09:46:23.243Z,2.63
2022-07-26T09:49:09.806Z,2.83
2022-07-26T09:51:39.131Z,6.70
2022-07-26T09:54:07.116Z,2.65
2022-07-26T09:59:14.294Z,8.25
2022-07-26T10:01:42.322Z,3.05
2022-07-26T10:04:10.534Z,3.78
2022-07-26T10:06:37.981Z,3.25
2022-07-26T10:09:05.971Z,10.52
2022-07-26T10:11:41.676Z,3.30
2022-07-26T10:14:34.025Z,3.10
2022-07-26T10:17:21.557Z,4.05
2022-07-26T10:19:58.441Z,2.83
2022-07-26T10:22:27.381Z,3.00
2022-07-26T10:24:58.114Z,30.33
2022-07-26T10:27:42.687Z,19.75
2022-07-26T10:30:18.592Z,3.53
2022-07-26T10:32:51.582Z,3.35
2022-07-26T10:35:31.658Z,3.10
2022-07-26T10:38:00.959Z,3.33
2022-07-26T10:40:30.641Z,2.88
2022-07-26T10:43:39.622Z,3.00
2022-07-26T10:46:17.146Z,2.65
2022-07-26T10:49:06.370Z,3.20
2022-07-26T10:51:37.715Z,3.05
2022-07-26T10:54:10.018Z,3.20
2022-07-26T10:56:38.256Z,3.05
2022-07-26T10:59:06.045Z,3.00
2022-07-26T11:01:41.633Z,3.60
2022-07-26T11:04:19.474Z,3.25
2022-07-26T11:06:46.549Z,3.00
2022-07-26T11:09:13.946Z,3.80
2022-07-26T11:11:47.217Z,3.75
2022-07-26T11:14:18.032Z,3.70
2022-07-26T11:16:50.514Z,3.50
2022-07-26T11:19:24.826Z,3.67
2022-07-26T11:21:59.096Z,3.85
2022-07-26T11:24:26.963Z,3.45
2022-07-26T11:26:55.864Z,3.93
2022-07-26T11:29:37.343Z,3.53
2022-07-26T11:32:18.174Z,3.92
2022-07-26T11:37:13.625Z,3.70
2022-07-26T11:39:40.581Z,4.10
2022-07-26T11:42:09.869Z,3.65
2022-07-26T11:44:37.291Z,3.70
2022-07-26T11:47:15.630Z,4.40
2022-07-26T11:50:01.294Z,3.97
2022-07-26T11:52:31.875Z,4.00
2022-07-26T11:54:59.403Z,4.40
2022-07-26T11:57:31.710Z,4.25
2022-07-26T12:00:00.616Z,4.68
2022-07-26T12:02:30.304Z,4.90
2022-07-26T12:05:14.981Z,4.88
2022-07-26T12:07:57.292Z,5.18
2022-07-26T12:10:24.488Z,5.70
2022-07-26T12:13:10.232Z,4.97
2022-07-26T12:15:53.494Z,6.13
2022-07-26T12:18:31.354Z,5.97
2022-07-26T12:21:05.551Z,5.88
2022-07-26T12:23:48.381Z,6.00
2022-07-26T12:26:34.164Z,6.57
2022-07-26T12:29:19.688Z,5.90
2022-07-26T12:31:47.514Z,6.40
2022-07-26T12:34:21.353Z,6.25
2022-07-26T12:36:48.417Z,7.40
2022-07-26T12:39:22.523Z,7.38
2022-07-26T12:41:50.665Z,7.18
2022-07-26T12:44:17.851Z,8.82
2022-07-26T12:46:45.025Z,8.23
2022-07-26T12:49:12.554Z,7.95
2022-07-26T12:51:40.083Z,8.38
2022-07-26T12:54:07.198Z,7.65
2022-07-26T12:56:34.522Z,9.63
2022-07-26T12:59:01.864Z,9.18
2022-07-26T13:01:30.286Z,7.28
2022-07-26T13:03:57.323Z,7.25
2022-07-26T13:06:24.463Z,7.93
2022-07-26T13:08:51.446Z,7.40
2022-07-26T13:11:18.400Z,9.18
2022-07-26T13:13:45.449Z,8.07
2022-07-26T13:16:12.638Z,7.78
2022-07-26T13:18:39.676Z,8.00
2022-07-26T13:21:06.947Z,7.90
2022-07-26T13:23:34.904Z,8.30
2022-07-26T13:26:02.779Z,7.88
2022-07-26T13:28:30.536Z,8.73
2022-07-26T13:30:57.596Z,10.82
2022-07-26T13:33:24.434Z,9.60
2022-07-26T13:35:51.559Z,9.00
2022-07-26T13:38:19.805Z,9.43
2022-07-26T13:40:47.070Z,9.27
2022-07-26T13:43:14.768Z,9.38
2022-07-26T13:45:41.821Z,10.50
2022-07-26T13:48:08.726Z,9.55
2022-07-26T13:50:35.773Z,10.27
2022-07-26T13:53:02.761Z,10.05
2022-07-26T13:55:29.611Z,11.05
2022-07-26T13:57:58.216Z,11.18
2022-07-26T14:00:27.089Z,10.25
2022-07-26T14:02:55.336Z,11.10
2022-07-26T14:05:23.359Z,11.07
2022-07-26T14:07:50.779Z,10.40
2022-07-26T14:10:18.323Z,9.38
2022-07-26T14:12:49.036Z,9.60
2022-07-26T14:15:21.755Z,9.32
2022-07-26T14:17:50.008Z,9.50
2022-07-26T14:20:20.064Z,8.82
2022-07-26T14:22:47.814Z,8.57
2022-07-26T14:25:14.959Z,10.13
2022-07-26T14:27:41.763Z,10.57
2022-07-26T14:30:08.982Z,10.15
2022-07-26T14:32:36.087Z,9.82
2022-07-26T14:35:03.243Z,10.93
2022-07-26T14:37:43.251Z,11.35
2022-07-26T14:40:17.267Z,11.27
2022-07-26T14:42:45.597Z,11.10
2022-07-26T14:45:13.823Z,11.00
2022-07-26T14:47:41.034Z,11.88
2022-07-26T14:50:09.479Z,10.80
2022-07-26T14:52:42.018Z,12.48
2022-07-26T14:55:09.688Z,11.30
2022-07-26T14:57:39.273Z,11.75
2022-07-26T15:00:11.977Z,12.98
2022-07-26T15:02:44.325Z,12.88
2022-07-26T15:05:12.873Z,13.18
2022-07-26T15:07:41.113Z,12.60
2022-07-26T15:10:10.882Z,14.10
2022-07-26T15:12:38.340Z,14.07
2022-07-26T15:15:07.272Z,12.85
2022-07-26T15:20:01.616Z,12.88
2022-07-26T15:22:29.750Z,12.50
2022-07-26T15:24:56.733Z,13.65
2022-07-26T15:27:23.555Z,13.75
2022-07-26T15:29:51.004Z,13.40
2022-07-26T15:32:20.448Z,12.65
2022-07-26T15:37:14.088Z,12.90
2022-07-26T15:39:41.374Z,11.55
2022-07-26T15:42:09.261Z,11.80
2022-07-26T15:44:38.870Z,12.45
2022-07-26T15:47:06.477Z,13.38
2022-07-26T15:49:34.217Z,13.75
2022-07-26T15:52:10.396Z,13.55
2022-07-26T15:54:37.636Z,14.10
2022-07-26T15:57:04.610Z,14.02
2022-07-26T15:59:31.791Z,15.00
2022-07-26T16:01:58.643Z,16.05
2022-07-26T16:04:25.468Z,14.82
2022-07-26T16:06:52.567Z,16.10
2022-07-26T16:09:20.004Z,15.55
2022-07-26T16:11:48.160Z,15.93
2022-07-26T16:14:16.180Z,16.20
2022-07-26T16:16:43.484Z,17.70
2022-07-26T16:19:11.048Z,18.40
2022-07-26T16:21:38.891Z,18.63
2022-07-26T16:24:07.515Z,18.08
2022-07-26T16:26:35.541Z,17.77
2022-07-26T16:29:03.587Z,17.30
2022-07-26T16:31:30.889Z,16.77
2022-07-26T16:33:58.195Z,17.35
2022-07-26T16:36:25.793Z,16.63
2022-07-26T16:38:52.644Z,16.10
2022-07-26T16:41:19.497Z,16.48
2022-07-26T16:43:46.515Z,16.25
2022-07-26T16:46:13.433Z,16.38
2022-07-26T16:48:40.372Z,16.40
2022-07-26T16:51:07.551Z,16.02
2022-07-26T16:53:34.366Z,16.85
2022-07-26T16:56:01.163Z,17.20
2022-07-26T16:58:28.212Z,17.58
2022-07-26T17:00:55.208Z,16.27
2022-07-26T17:03:22.049Z,17.23
2022-07-26T17:05:49.391Z,18.10
2022-07-26T17:08:16.625Z,17.90
2022-07-26T17:10:44.209Z,18.20
2022-07-26T17:13:11.657Z,19.05
2022-07-26T17:15:38.853Z,18.85
2022-07-26T17:18:05.726Z,18.50
2022-07-26T17:20:32.758Z,19.65
2022-07-26T17:22:59.675Z,19.90
2022-07-26T17:25:26.608Z,19.02
2022-07-26T17:27:53.554Z,18.10
2022-07-26T17:30:20.544Z,18.85
2022-07-26T17:32:47.462Z,19.35
2022-07-26T17:35:14.618Z,19.27
2022-07-26T17:37:41.707Z,19.25
2022-07-26T17:40:09.426Z,19.95
2022-07-26T17:42:37.354Z,17.80
2022-07-26T17:45:05.879Z,19.45
2022-07-26T17:47:32.704Z,19.98
2022-07-26T17:50:26.464Z,20.50
2022-07-26T17:52:50.433Z,19.33
2022-07-26T17:55:21.011Z,21.00
2022-07-26T17:57:49.685Z,19.85
2022-07-26T18:00:20.397Z,20.55
2022-07-26T18:02:48.420Z,20.13
2022-07-26T18:05:16.752Z,19.40
2022-07-26T18:07:43.825Z,19.52
2022-07-26T18:10:11.666Z,21.05
2022-07-26T18:12:38.472Z,22.98
2022-07-26T18:15:07.097Z,23.70
2022-07-26T18:17:34.342Z,21.92
2022-07-26T18:20:01.142Z,22.17
2022-07-26T18:22:27.987Z,22.38
2022-07-26T18:24:54.991Z,20.60
2022-07-26T18:27:22.406Z,21.88
2022-07-26T18:29:50.286Z,21.45
2022-07-26T18:32:19.360Z,22.65
2022-07-26T18:34:52.111Z,21.55
2022-07-26T18:37:20.756Z,21.85
2022-07-26T18:39:48.390Z,22.15
2022-07-26T18:42:15.620Z,23.27
2022-07-26T18:44:42.847Z,19.95
2022-07-26T18:47:09.845Z,22.42
2022-07-26T18:49:36.805Z,20.85
2022-07-26T18:52:08.552Z,23.25
2022-07-26T18:54:36.236Z,22.38
2022-07-26T18:57:03.594Z,21.92
2022-07-26T18:59:31.267Z,21.83
2022-07-26T19:02:00.100Z,20.98
2022-07-26T19:04:28.159Z,22.08
2022-07-26T19:06:55.731Z,20.02
2022-07-26T19:09:22.614Z,18.10
2022-07-26T19:11:49.804Z,15.10
2022-07-26T19:14:17.086Z,13.82
2022-07-26T19:16:43.886Z,13.18
2022-07-26T19:19:11.053Z,12.07
2022-07-26T19:21:40.134Z,13.38
2022-07-26T19:24:07.178Z,13.60
2022-07-26T19:26:34.583Z,12.27
2022-07-26T19:29:01.727Z,11.05
2022-07-26T19:31:28.679Z,11.38
2022-07-26T19:33:55.572Z,10.27
2022-07-26T19:36:26.610Z,10.63
2022-07-26T19:38:55.914Z,10.02
2022-07-26T19:41:23.267Z,10.15
2022-07-26T19:43:50.261Z,11.02
2022-07-26T19:46:17.464Z,10.80
2022-07-26T19:48:44.968Z,10.60
2022-07-26T19:51:12.033Z,9.75
2022-07-26T19:53:38.812Z,10.65
2022-07-26T19:56:07.990Z,10.13
2022-07-26T19:58:34.864Z,10.57
2022-07-26T20:01:02.067Z,9.95
2022-07-26T20:03:29.106Z,8.75
2022-07-26T20:05:56.940Z,8.38
2022-07-26T20:08:24.459Z,7.95
2022-07-26T20:10:51.976Z,7.82
2022-07-26T20:13:19.241Z,8.50
2022-07-26T20:15:47.386Z,7.82
2022-07-26T20:18:14.552Z,8.07
2022-07-26T20:20:41.676Z,7.80
2022-07-26T20:23:11.065Z,7.73
2022-07-26T20:25:38.154Z,9.35
2022-07-26T20:28:05.320Z,9.10
2022-07-26T20:30:32.162Z,9.15
2022-07-26T20:32:59.242Z,8.40
2022-07-26T20:35:26.133Z,8.13
2022-07-26T20:37:53.012Z,7.88
2022-07-26T20:40:20.548Z,8.27
2022-07-26T20:42:50.334Z,7.10
2022-07-26T20:45:17.775Z,7.05
2022-07-26T20:47:44.829Z,7.80
2022-07-26T20:50:12.776Z,7.18
2022-07-26T20:52:40.132Z,7.35
2022-07-26T20:55:07.691Z,7.10
2022-07-26T20:57:34.777Z,7.35
2022-07-26T21:00:01.956Z,8.05
2022-07-26T21:02:29.148Z,7.63
2022-07-26T21:04:56.128Z,7.00
2022-07-26T21:07:24.274Z,6.90
2022-07-26T21:10:12.023Z,7.07
2022-07-26T21:12:38.874Z,7.60
2022-07-26T21:15:06.253Z,7.20
2022-07-26T21:17:34.805Z,7.10
2022-07-26T21:20:02.967Z,6.68
2022-07-26T21:22:29.991Z,7.05
2022-07-26T21:24:57.219Z,6.60
2022-07-26T21:27:24.048Z,6.60
2022-07-26T21:29:50.995Z,6.80
2022-07-26T21:32:17.991Z,6.93
2022-07-26T21:34:44.899Z,7.78
2022-07-26T21:37:11.740Z,7.15
2022-07-26T21:39:38.745Z,7.57
2022-07-26T21:42:05.570Z,7.88
2022-07-26T21:44:32.358Z,7.90
2022-07-26T21:46:59.471Z,8.38
2022-07-26T21:49:26.357Z,8.13
2022-07-26T21:51:53.285Z,8.50
2022-07-26T21:54:20.346Z,9.05
2022-07-26T21:56:47.155Z,9.23
2022-07-26T21:59:14.502Z,9.07
2022-07-26T22:01:42.805Z,8.50
2022-07-26T22:04:10.283Z,8.55
2022-07-26T22:06:37.825Z,8.52
2022-07-26T22:09:05.195Z,8.30
2022-07-26T22:11:32.041Z,8.35
2022-07-26T22:13:58.856Z,9.25
2022-07-26T22:16:25.923Z,8.73
2022-07-26T22:18:52.752Z,9.43
2022-07-26T22:21:19.620Z,8.45
2022-07-26T22:23:46.714Z,9.25
2022-07-26T22:26:14.340Z,8.95
2022-07-26T22:28:41.204Z,10.30
2022-07-26T22:31:08.391Z,9.75
2022-07-26T22:33:35.229Z,8.63
2022-07-26T22:36:02.016Z,8.38
2022-07-26T22:38:30.432Z,9.30
2022-07-26T22:40:57.325Z,9.60
2022-07-26T22:43:24.092Z,10.88
2022-07-26T22:45:51.508Z,10.98
2022-07-26T22:48:18.507Z,9.98
2022-07-26T22:50:45.455Z,9.70
2022-07-26T22:53:12.601Z,10.70
2022-07-26T22:55:39.500Z,10.90
2022-07-26T22:58:06.348Z,11.80
2022-07-26T23:00:33.445Z,11.00
2022-07-26T23:03:00.275Z,11.75
2022-07-26T23:05:36.073Z,11.80
2022-07-26T23:08:36.267Z,11.77
2022-07-26T23:10:59.761Z,12.75
2022-07-26T23:13:26.763Z,12.98
2022-07-26T23:15:58.137Z,13.05
2022-07-26T23:18:27.319Z,14.05
2022-07-26T23:20:54.108Z,12.85
2022-07-26T23:23:20.950Z,15.73
2022-07-26T23:25:47.943Z,13.45
2022-07-26T23:28:24.753Z,14.10
2022-07-26T23:31:14.398Z,14.18
2022-07-26T23:33:52.775Z,13.77
2022-07-26T23:36:26.192Z,12.75
2022-07-26T23:38:57.536Z,14.20
2022-07-26T23:41:25.358Z,13.05
2022-07-26T23:43:53.065Z,13.45
2022-07-26T23:46:20.799Z,13.75
2022-07-26T23:48:48.207Z,13.52
2022-07-26T23:51:15.375Z,13.23
2022-07-26T23:53:42.438Z,13.70
2022-07-26T23:56:09.806Z,15.30
2022-07-26T23:58:36.717Z,15.32
